Location Sebastian, FL, US

ob KFLSEBAS1 270010Z AUTO 04000KT OVC110 22/18 A3001 RMK SLPNO 

2019.03.27 0010 UTC
Wind from the NE (44 degrees) at Calm MPH ( KT) gusting to 0.0 MPH (0 KT)
Visibility    Mile(s)
Sky Conditions  overcast
Temperature 71.00 F (22 C)
Dew Point 65.23 F (18 C)
Relative Humidity 82%
Pressure   30.01 in. Hg (1016 hPa)
Rain  0.00 in.
Daily Rain  in.

Station Name  Memory Makers, Inc.
Longitude, Latitude  -80.48, 27.8
Elevation 23
Station URL www.kflsebas1.com
Software Type VWS V15.00